createdAt,value
2018-06-28T00:00:13.247Z,17.92
2018-06-28T00:02:41.828Z,17.95
2018-06-28T00:05:10.411Z,17.78
2018-06-28T00:07:38.832Z,17.71
2018-06-28T00:10:08.684Z,17.66
2018-06-28T00:12:37.199Z,17.70
2018-06-28T00:15:06.902Z,17.64
2018-06-28T00:17:35.495Z,17.56
2018-06-28T00:20:04.018Z,17.50
2018-06-28T00:22:32.576Z,17.52
2018-06-28T00:25:01.110Z,17.50
2018-06-28T00:27:30.630Z,17.45
2018-06-28T00:29:59.547Z,17.40
2018-06-28T00:32:28.231Z,17.47
2018-06-28T00:34:56.757Z,17.36
2018-06-28T00:37:25.410Z,17.32
2018-06-28T00:39:53.999Z,17.41
2018-06-28T00:42:22.646Z,17.31
2018-06-28T00:44:51.807Z,17.33
2018-06-28T00:47:20.392Z,17.30
2018-06-28T00:49:49.069Z,17.25
2018-06-28T00:52:17.795Z,17.12
2018-06-28T00:54:46.468Z,17.18
2018-06-28T00:57:15.023Z,17.07
2018-06-28T00:59:43.528Z,17.01
2018-06-28T01:02:12.080Z,17.04
2018-06-28T01:04:40.602Z,17.02
2018-06-28T01:07:10.128Z,17.01
2018-06-28T01:09:38.639Z,16.85
2018-06-28T01:12:07.216Z,16.91
2018-06-28T01:14:36.252Z,16.80
2018-06-28T01:17:05.232Z,16.92
2018-06-28T01:19:33.810Z,16.82
2018-06-28T01:22:02.363Z,16.82
2018-06-28T01:24:30.880Z,16.80
2018-06-28T01:26:59.407Z,16.72
2018-06-28T01:29:27.898Z,16.76
2018-06-28T01:31:56.527Z,16.68
2018-06-28T01:34:25.397Z,16.72
2018-06-28T01:36:53.977Z,16.69
2018-06-28T01:39:22.575Z,16.60
2018-06-28T01:42:02.394Z,16.49
2018-06-28T01:44:30.977Z,16.44
2018-06-28T01:47:00.028Z,16.54
2018-06-28T01:49:28.850Z,16.40
2018-06-28T01:51:57.417Z,16.36
2018-06-28T01:54:26.051Z,16.33
2018-06-28T01:56:54.610Z,16.29
2018-06-28T01:59:23.814Z,16.36
2018-06-28T02:01:52.384Z,16.25
2018-06-28T02:04:20.947Z,16.16
2018-06-28T02:06:49.490Z,16.17
2018-06-28T02:09:18.077Z,16.12
2018-06-28T02:11:46.748Z,16.08
2018-06-28T02:14:15.408Z,16.02
2018-06-28T02:16:44.036Z,16.00
2018-06-28T02:19:12.546Z,16.02
2018-06-28T02:21:41.158Z,16.02
2018-06-28T02:24:09.708Z,16.06
2018-06-28T02:26:40.025Z,15.95
2018-06-28T02:29:08.581Z,15.93
2018-06-28T02:31:37.188Z,15.82
2018-06-28T02:34:05.769Z,15.81
2018-06-28T02:36:34.367Z,15.81
2018-06-28T02:39:02.942Z,15.76
2018-06-28T02:41:31.475Z,15.71
2018-06-28T02:44:00.307Z,15.76
2018-06-28T02:46:28.907Z,15.70
2018-06-28T02:48:57.543Z,15.70
2018-06-28T02:51:26.154Z,15.62
2018-06-28T02:53:55.491Z,15.57
2018-06-28T02:56:24.572Z,15.55
2018-06-28T02:58:53.196Z,15.53
2018-06-28T03:01:21.824Z,15.52
2018-06-28T03:03:52.511Z,15.51
2018-06-28T03:06:21.126Z,15.48
2018-06-28T03:08:49.693Z,15.48
2018-06-28T03:11:18.467Z,15.47
2018-06-28T03:13:48.136Z,15.43
2018-06-28T03:16:16.923Z,15.45
2018-06-28T03:18:45.804Z,15.46
2018-06-28T03:21:14.340Z,15.43
2018-06-28T03:23:43.398Z,15.50
2018-06-28T03:26:12.036Z,15.51
2018-06-28T03:28:40.743Z,15.46
2018-06-28T03:31:10.079Z,15.47
2018-06-28T03:33:38.958Z,15.57
2018-06-28T03:36:07.691Z,15.62
2018-06-28T03:38:36.242Z,15.55
2018-06-28T03:41:04.760Z,15.58
2018-06-28T03:43:33.347Z,15.54
2018-06-28T03:46:01.904Z,15.55
2018-06-28T03:48:30.443Z,15.60
2018-06-28T03:50:59.099Z,15.61
2018-06-28T03:53:27.670Z,15.59
2018-06-28T03:55:56.217Z,15.57
2018-06-28T03:58:24.875Z,15.65
2018-06-28T04:03:49.542Z,15.72
2018-06-28T04:06:18.796Z,15.65
2018-06-28T04:08:48.438Z,15.69
2018-06-28T04:11:17.384Z,15.68
2018-06-28T04:13:46.210Z,15.70
2018-06-28T04:16:15.071Z,15.78
2018-06-28T04:18:43.960Z,15.83
2018-06-28T04:21:12.893Z,15.84
2018-06-28T04:23:42.195Z,15.92
2018-06-28T04:26:11.520Z,15.93
2018-06-28T04:28:40.715Z,15.91
2018-06-28T04:31:10.101Z,15.95
2018-06-28T04:33:39.172Z,16.04
2018-06-28T04:36:08.416Z,16.18
2018-06-28T04:38:37.876Z,16.17
2018-06-28T04:41:07.064Z,16.22
2018-06-28T04:43:38.991Z,16.23
2018-06-28T04:46:08.818Z,16.22
2018-06-28T04:48:37.808Z,16.35
2018-06-28T04:51:06.952Z,16.43
2018-06-28T04:53:36.133Z,16.59
2018-06-28T04:56:05.876Z,16.59
2018-06-28T04:58:35.045Z,16.79
2018-06-28T05:01:04.293Z,16.88
2018-06-28T05:03:33.559Z,16.96
2018-06-28T05:06:02.763Z,17.10
2018-06-28T05:08:31.916Z,17.31
2018-06-28T05:11:01.358Z,17.41
2018-06-28T05:13:30.473Z,17.33
2018-06-28T05:15:59.767Z,17.46
2018-06-28T05:18:28.919Z,17.68
2018-06-28T05:20:57.968Z,17.87
2018-06-28T05:23:27.373Z,17.93
2018-06-28T05:25:56.663Z,17.74
2018-06-28T05:28:25.910Z,17.64
2018-06-28T05:30:55.151Z,17.79
2018-06-28T05:33:24.185Z,17.96
2018-06-28T05:35:53.715Z,18.13
2018-06-28T05:38:22.745Z,18.10
2018-06-28T05:40:51.842Z,18.26
2018-06-28T05:43:21.097Z,18.41
2018-06-28T05:45:50.655Z,18.69
2018-06-28T05:48:19.802Z,18.67
2018-06-28T05:50:48.971Z,18.86
2018-06-28T05:53:18.091Z,18.80
2018-06-28T05:55:47.471Z,19.06
2018-06-28T05:58:16.719Z,19.06
2018-06-28T06:00:46.160Z,19.09
2018-06-28T06:03:15.431Z,19.36
2018-06-28T06:05:44.747Z,19.47
2018-06-28T06:08:13.949Z,19.39
2018-06-28T06:10:43.284Z,19.49
2018-06-28T06:13:12.283Z,19.81
2018-06-28T06:15:41.538Z,19.93
2018-06-28T06:18:10.806Z,20.07
2018-06-28T06:20:40.068Z,20.25
2018-06-28T06:23:09.338Z,20.41
2018-06-28T06:25:38.623Z,20.18
2018-06-28T06:28:07.962Z,20.47
2018-06-28T06:30:37.838Z,20.86
2018-06-28T06:33:07.072Z,20.97
2018-06-28T06:35:36.347Z,21.18
2018-06-28T06:38:05.531Z,21.03
2018-06-28T06:40:35.966Z,21.07
2018-06-28T06:43:06.484Z,21.29
2018-06-28T06:45:35.918Z,21.39
2018-06-28T06:48:05.244Z,21.00
2018-06-28T06:50:34.723Z,21.44
2018-06-28T06:53:03.978Z,21.46
2018-06-28T06:55:33.018Z,21.61
2018-06-28T06:58:02.459Z,21.77
2018-06-28T07:00:32.756Z,21.59
2018-06-28T07:03:02.144Z,22.13
2018-06-28T07:05:31.337Z,22.20
2018-06-28T07:08:00.483Z,22.22
2018-06-28T07:10:29.750Z,22.36
2018-06-28T07:12:58.761Z,22.59
2018-06-28T07:15:28.237Z,22.26
2018-06-28T07:17:57.840Z,22.47
2018-06-28T07:20:27.012Z,22.34
2018-06-28T07:22:56.665Z,22.65
2018-06-28T07:25:25.943Z,22.44
2018-06-28T07:27:55.292Z,22.65
2018-06-28T07:30:24.689Z,22.74
2018-06-28T07:32:53.752Z,22.78
2018-06-28T07:35:22.948Z,22.95
2018-06-28T07:37:52.107Z,23.28
2018-06-28T07:40:21.243Z,23.42
2018-06-28T07:42:50.980Z,23.08
2018-06-28T07:45:20.150Z,23.61
2018-06-28T07:47:49.215Z,23.59
2018-06-28T07:50:18.302Z,23.82
2018-06-28T07:52:47.289Z,23.93
2018-06-28T07:55:16.665Z,24.07
2018-06-28T07:57:45.880Z,24.06
2018-06-28T08:00:15.152Z,24.18
2018-06-28T08:02:44.450Z,24.20
2018-06-28T08:05:13.812Z,24.26
2018-06-28T08:07:42.906Z,24.33
2018-06-28T08:10:12.141Z,24.40
2018-06-28T08:12:41.488Z,24.59
2018-06-28T08:15:10.911Z,24.34
2018-06-28T08:17:40.099Z,24.49
2018-06-28T08:20:09.524Z,24.69
2018-06-28T08:22:38.584Z,24.98
2018-06-28T08:25:07.659Z,24.98
2018-06-28T08:27:36.859Z,25.23
2018-06-28T08:30:06.399Z,25.12
2018-06-28T08:32:35.681Z,25.28
2018-06-28T08:35:05.162Z,25.31
2018-06-28T08:37:34.397Z,25.10
2018-06-28T08:40:03.560Z,25.26
2018-06-28T08:42:32.783Z,25.22
2018-06-28T08:45:01.959Z,25.22
2018-06-28T08:47:31.087Z,25.36
2018-06-28T08:50:00.379Z,24.94
2018-06-28T08:52:29.708Z,25.24
2018-06-28T08:54:58.992Z,25.40
2018-06-28T08:57:28.196Z,25.54
2018-06-28T08:59:57.356Z,25.78
2018-06-28T09:02:26.684Z,25.58
2018-06-28T09:04:55.971Z,25.67
2018-06-28T09:07:25.074Z,25.55
2018-06-28T09:09:54.356Z,25.87
2018-06-28T09:12:23.686Z,25.85
2018-06-28T09:14:52.763Z,25.71
2018-06-28T09:17:22.106Z,25.86
2018-06-28T09:19:51.403Z,26.01
2018-06-28T09:22:20.623Z,26.17
2018-06-28T09:24:49.952Z,26.65
2018-06-28T09:27:19.206Z,26.38
2018-06-28T09:29:48.600Z,26.42
2018-06-28T09:32:17.870Z,26.19
2018-06-28T09:34:47.075Z,26.29
2018-06-28T09:37:16.281Z,25.87
2018-06-28T09:39:45.551Z,26.31
2018-06-28T09:42:14.788Z,25.73
2018-06-28T09:44:44.963Z,26.05
2018-06-28T09:47:14.249Z,26.91
2018-06-28T09:49:43.728Z,26.20
2018-06-28T09:52:13.134Z,26.54
2018-06-28T09:54:42.404Z,26.45
2018-06-28T09:57:11.612Z,25.78
2018-06-28T09:59:41.274Z,26.61
2018-06-28T10:02:10.533Z,26.79
2018-06-28T10:04:39.776Z,26.30
2018-06-28T10:07:09.112Z,26.83
2018-06-28T10:09:38.361Z,26.74
2018-06-28T10:12:07.518Z,26.67
2018-06-28T10:14:36.705Z,26.43
2018-06-28T10:17:06.057Z,26.83
2018-06-28T10:19:35.398Z,26.97
2018-06-28T10:22:04.722Z,27.27
2018-06-28T10:24:33.837Z,26.74
2018-06-28T10:27:03.031Z,27.25
2018-06-28T10:29:32.407Z,27.52
2018-06-28T10:32:01.624Z,27.71
2018-06-28T10:34:30.999Z,27.65
2018-06-28T10:37:00.302Z,27.58
2018-06-28T10:39:29.498Z,27.87
2018-06-28T10:41:58.695Z,28.28
2018-06-28T10:44:27.955Z,28.31
2018-06-28T10:46:57.195Z,27.73
2018-06-28T10:49:26.379Z,28.45
2018-06-28T10:51:55.713Z,27.17
2018-06-28T10:54:24.875Z,27.34
2018-06-28T10:56:54.402Z,26.87
2018-06-28T10:59:23.573Z,27.66
2018-06-28T11:01:52.687Z,27.91
2018-06-28T11:04:22.240Z,27.71
2018-06-28T11:06:51.512Z,27.48
2018-06-28T11:09:20.546Z,28.10
2018-06-28T11:11:49.855Z,28.42
2018-06-28T11:14:19.181Z,28.44
2018-06-28T11:16:48.484Z,28.08
2018-06-28T11:19:17.598Z,27.67
2018-06-28T11:21:46.843Z,28.29
2018-06-28T11:24:16.181Z,28.85
2018-06-28T11:26:45.945Z,29.01
2018-06-28T11:29:15.227Z,29.96
2018-06-28T11:31:44.494Z,28.99
2018-06-28T11:34:13.595Z,30.04
2018-06-28T11:36:42.846Z,30.46
2018-06-28T11:39:12.454Z,30.46
2018-06-28T11:41:41.686Z,30.36
2018-06-28T11:44:11.028Z,31.10
2018-06-28T11:46:40.091Z,30.39
2018-06-28T11:49:09.299Z,29.63
2018-06-28T11:51:38.485Z,29.02
2018-06-28T11:54:07.736Z,28.93
2018-06-28T11:56:37.032Z,30.77
2018-06-28T11:59:06.271Z,29.59
2018-06-28T12:01:35.566Z,30.68
2018-06-28T12:04:04.675Z,29.04
2018-06-28T12:06:33.924Z,29.18
2018-06-28T12:09:03.231Z,28.63
2018-06-28T12:11:32.407Z,28.26
2018-06-28T12:14:01.749Z,29.18
2018-06-28T12:16:31.088Z,30.15
2018-06-28T12:19:00.472Z,30.08
2018-06-28T12:21:29.667Z,29.92
2018-06-28T12:23:58.767Z,30.05
2018-06-28T12:26:27.962Z,28.63
2018-06-28T12:28:57.242Z,28.52
2018-06-28T12:31:26.287Z,28.29
2018-06-28T12:33:57.659Z,28.31
2018-06-28T12:36:27.400Z,28.11
2018-06-28T12:38:58.703Z,28.74
2018-06-28T12:41:30.593Z,30.26
2018-06-28T12:44:00.252Z,30.45
2018-06-28T12:48:44.925Z,29.97
2018-06-28T12:51:14.796Z,30.94
2018-06-28T12:53:43.910Z,31.54
2018-06-28T12:56:32.546Z,30.14
2018-06-28T12:59:04.104Z,29.21
2018-06-28T13:01:34.314Z,28.76
2018-06-28T13:04:03.591Z,28.50
2018-06-28T13:06:32.833Z,28.38
2018-06-28T13:09:02.456Z,28.55
2018-06-28T13:11:31.811Z,28.01
2018-06-28T13:14:01.161Z,27.41
2018-06-28T13:16:30.484Z,27.80
2018-06-28T13:18:59.554Z,27.23
2018-06-28T13:21:29.683Z,27.21
2018-06-28T13:23:59.078Z,26.83
2018-06-28T13:26:28.806Z,26.79
2018-06-28T13:28:58.736Z,26.74
2018-06-28T13:31:28.118Z,27.04
2018-06-28T13:33:57.973Z,27.06
2018-06-28T13:36:27.242Z,27.20
2018-06-28T13:38:56.528Z,27.15
2018-06-28T13:41:26.095Z,27.31
2018-06-28T13:43:55.114Z,27.36
2018-06-28T13:46:24.379Z,27.63
2018-06-28T13:48:53.583Z,28.15
2018-06-28T13:51:23.090Z,28.08
2018-06-28T13:53:52.307Z,28.11
2018-06-28T13:56:22.302Z,28.44
2018-06-28T13:58:51.646Z,30.22
2018-06-28T14:01:22.079Z,29.94
2018-06-28T14:03:51.455Z,30.55
2018-06-28T14:06:20.683Z,29.15
2018-06-28T14:08:50.020Z,27.90
2018-06-28T14:11:19.278Z,27.95
2018-06-28T14:13:48.652Z,29.62
2018-06-28T14:16:18.015Z,32.24
2018-06-28T14:18:47.511Z,34.16
2018-06-28T14:21:16.701Z,31.59
2018-06-28T14:23:45.835Z,34.06
2018-06-28T14:26:15.077Z,34.43
2018-06-28T14:28:44.340Z,33.60
2018-06-28T14:31:13.583Z,30.24
2018-06-28T14:33:43.236Z,29.09
2018-06-28T14:36:12.376Z,28.98
2018-06-28T14:38:41.429Z,28.08
2018-06-28T14:41:10.997Z,27.99
2018-06-28T14:43:40.253Z,27.81
2018-06-28T14:46:09.377Z,28.00
2018-06-28T14:48:38.578Z,28.07
2018-06-28T14:51:08.155Z,27.85
2018-06-28T14:53:37.404Z,28.40
2018-06-28T14:56:06.704Z,28.25
2018-06-28T14:58:36.039Z,28.10
2018-06-28T15:01:05.160Z,27.92
2018-06-28T15:03:34.375Z,27.48
2018-06-28T15:06:03.599Z,27.05
2018-06-28T15:08:32.846Z,26.88
2018-06-28T15:11:02.071Z,26.45
2018-06-28T15:13:31.204Z,26.26
2018-06-28T15:16:00.609Z,26.36
2018-06-28T15:18:30.060Z,26.27
2018-06-28T15:20:59.177Z,26.05
2018-06-28T15:23:28.415Z,26.14
2018-06-28T15:25:57.668Z,26.12
2018-06-28T15:28:26.831Z,26.22
2018-06-28T15:30:56.145Z,26.15
2018-06-28T15:33:25.503Z,26.35
2018-06-28T15:35:55.088Z,26.28
2018-06-28T15:38:24.264Z,26.44
2018-06-28T15:40:53.494Z,26.42
2018-06-28T15:43:22.728Z,26.22
2018-06-28T15:45:52.009Z,26.10
2018-06-28T15:48:21.532Z,26.57
2018-06-28T15:50:50.719Z,26.92
2018-06-28T15:53:19.951Z,26.85
2018-06-28T15:55:49.381Z,26.75
2018-06-28T15:58:18.611Z,26.85
2018-06-28T16:00:47.959Z,26.95
2018-06-28T16:03:17.783Z,26.94
2018-06-28T16:05:47.512Z,27.17
2018-06-28T16:08:16.635Z,27.21
2018-06-28T16:10:45.963Z,27.03
2018-06-28T16:13:15.239Z,27.52
2018-06-28T16:15:44.311Z,27.35
2018-06-28T16:18:13.485Z,27.04
2018-06-28T16:20:42.693Z,26.82
2018-06-28T16:23:11.962Z,26.54
2018-06-28T16:25:41.283Z,26.18
2018-06-28T16:28:10.824Z,25.21
2018-06-28T16:30:39.999Z,26.32
2018-06-28T16:33:09.348Z,26.68
2018-06-28T16:35:38.700Z,26.80
2018-06-28T16:38:07.844Z,26.50
2018-06-28T16:40:37.389Z,26.27
2018-06-28T16:43:06.580Z,26.19
2018-06-28T16:45:35.679Z,26.57
2018-06-28T16:48:04.889Z,26.65
2018-06-28T16:50:33.998Z,26.46
2018-06-28T16:53:03.284Z,26.34
2018-06-28T16:55:32.567Z,26.16
2018-06-28T16:58:01.655Z,26.19
2018-06-28T17:00:30.979Z,26.18
2018-06-28T17:03:01.435Z,26.02
2018-06-28T17:05:30.711Z,26.13
2018-06-28T17:08:00.137Z,25.95
2018-06-28T17:10:29.436Z,25.71
2018-06-28T17:12:58.507Z,25.93
2018-06-28T17:15:27.882Z,25.98
2018-06-28T17:17:57.170Z,25.92
2018-06-28T17:20:26.461Z,25.94
2018-06-28T17:22:56.036Z,25.94
2018-06-28T17:25:25.819Z,25.99
2018-06-28T17:27:55.094Z,25.82
2018-06-28T17:30:24.463Z,25.75
2018-06-28T17:32:53.549Z,25.85
2018-06-28T17:35:22.740Z,25.78
2018-06-28T17:37:51.991Z,25.77
2018-06-28T17:40:21.700Z,25.70
2018-06-28T17:42:50.888Z,25.78
2018-06-28T17:45:20.027Z,25.58
2018-06-28T17:47:49.719Z,25.50
2018-06-28T17:50:18.924Z,25.53
2018-06-28T17:52:48.247Z,25.30
2018-06-28T17:55:17.630Z,25.19
2018-06-28T17:57:46.815Z,25.24
2018-06-28T18:00:16.101Z,25.18
2018-06-28T18:02:45.550Z,25.19
2018-06-28T18:05:14.803Z,25.10
2018-06-28T18:07:44.318Z,25.03
2018-06-28T18:10:13.436Z,24.99
2018-06-28T18:12:42.729Z,24.97
2018-06-28T18:15:12.678Z,25.01
2018-06-28T18:17:41.817Z,24.94
2018-06-28T18:20:10.942Z,24.90
2018-06-28T18:22:40.333Z,24.91
2018-06-28T18:25:09.573Z,24.89
2018-06-28T18:27:38.882Z,24.81
2018-06-28T18:30:08.230Z,24.78
2018-06-28T18:32:37.410Z,24.64
2018-06-28T18:35:07.175Z,24.54
2018-06-28T18:37:36.407Z,24.46
2018-06-28T18:40:06.021Z,24.55
2018-06-28T18:42:35.298Z,24.45
2018-06-28T18:45:04.701Z,24.48
2018-06-28T18:47:34.493Z,24.50
2018-06-28T18:50:03.935Z,24.45
2018-06-28T18:52:33.223Z,24.34
2018-06-28T18:55:03.072Z,24.29
2018-06-28T18:57:32.176Z,24.26
2018-06-28T19:00:01.647Z,24.18
2018-06-28T19:02:31.873Z,24.25
2018-06-28T19:05:00.995Z,24.13
2018-06-28T19:07:30.445Z,24.12
2018-06-28T19:10:05.371Z,24.03
2018-06-28T19:12:34.731Z,23.94
2018-06-28T19:15:09.106Z,23.84
2018-06-28T19:17:38.331Z,23.89
2018-06-28T19:20:07.890Z,23.68
2018-06-28T19:22:42.199Z,23.55
2018-06-28T19:25:11.494Z,23.43
2018-06-28T19:27:40.735Z,23.20
2018-06-28T19:30:15.224Z,23.25
2018-06-28T19:32:44.371Z,23.14
2018-06-28T19:35:13.644Z,23.17
2018-06-28T19:37:47.987Z,23.15
2018-06-28T19:42:27.647Z,23.00
2018-06-28T19:44:56.839Z,22.88
2018-06-28T19:47:25.962Z,22.73
2018-06-28T19:50:00.296Z,22.68
2018-06-28T19:52:34.678Z,22.62
2018-06-28T19:55:04.032Z,22.55
2018-06-28T19:57:33.414Z,22.53
2018-06-28T20:00:02.630Z,22.43
2018-06-28T20:02:37.106Z,22.42
2018-06-28T20:05:06.325Z,22.48
2018-06-28T20:07:35.477Z,22.29
2018-06-28T20:10:05.279Z,22.21
2018-06-28T20:12:39.643Z,22.13
2018-06-28T20:15:14.049Z,22.24
2018-06-28T20:18:06.937Z,22.13
2018-06-28T20:20:36.180Z,21.98
2018-06-28T20:23:05.400Z,21.98
2018-06-28T20:25:34.728Z,22.00
2018-06-28T20:28:09.052Z,21.94
2018-06-28T20:30:43.412Z,21.83
2018-06-28T20:33:17.838Z,21.74
2018-06-28T20:35:46.967Z,21.66
2018-06-28T20:38:16.140Z,21.61
2018-06-28T20:40:45.371Z,21.58
2018-06-28T20:43:14.545Z,21.57
2018-06-28T20:45:43.656Z,21.46
2018-06-28T20:48:13.047Z,21.35
2018-06-28T20:50:42.338Z,21.30
2018-06-28T20:53:11.628Z,21.35
2018-06-28T20:55:40.664Z,21.29
2018-06-28T20:58:09.808Z,21.21
2018-06-28T21:00:39.145Z,21.19
2018-06-28T21:03:08.744Z,21.16
2018-06-28T21:05:37.778Z,21.07
2018-06-28T21:08:06.910Z,21.13
2018-06-28T21:10:36.159Z,20.97
2018-06-28T21:13:05.512Z,20.88
2018-06-28T21:15:34.775Z,20.95
2018-06-28T21:18:03.935Z,20.97
2018-06-28T21:20:33.195Z,20.82
2018-06-28T21:23:02.403Z,20.81
2018-06-28T21:25:31.744Z,20.70
2018-06-28T21:28:00.759Z,20.71
2018-06-28T21:30:30.163Z,20.79
2018-06-28T21:32:59.177Z,20.79
2018-06-28T21:35:28.451Z,20.68
2018-06-28T21:37:57.796Z,20.66
2018-06-28T21:40:27.152Z,20.55
2018-06-28T21:42:56.294Z,20.49
2018-06-28T21:45:25.739Z,20.43
2018-06-28T21:47:55.096Z,20.48
2018-06-28T21:50:24.342Z,20.41
2018-06-28T21:52:53.822Z,20.29
2018-06-28T21:55:23.206Z,20.25
2018-06-28T21:57:52.349Z,20.24
2018-06-28T22:00:37.335Z,20.17
2018-06-28T22:03:07.975Z,20.13
2018-06-28T22:05:37.279Z,20.16
2018-06-28T22:08:07.481Z,20.11
2018-06-28T22:10:36.768Z,20.11
2018-06-28T22:13:05.978Z,20.06
2018-06-28T22:15:35.274Z,19.98
2018-06-28T22:18:05.258Z,20.07
2018-06-28T22:20:35.139Z,20.02
2018-06-28T22:23:04.611Z,19.94
2018-06-28T22:25:34.299Z,19.86
2018-06-28T22:28:03.519Z,19.82
2018-06-28T22:30:34.254Z,19.74
2018-06-28T22:33:06.717Z,19.68
2018-06-28T22:35:37.743Z,19.62
2018-06-28T22:38:08.191Z,19.59
2018-06-28T22:40:43.645Z,19.52
2018-06-28T22:43:14.979Z,19.40
2018-06-28T22:45:45.852Z,19.31
2018-06-28T22:48:18.505Z,19.25
2018-06-28T22:50:48.146Z,19.20
2018-06-28T22:53:18.657Z,19.15
2018-06-28T22:55:48.205Z,19.07
2018-06-28T22:58:17.368Z,19.07
2018-06-28T23:00:46.743Z,18.99
2018-06-28T23:03:16.108Z,18.91
2018-06-28T23:05:45.327Z,18.91
2018-06-28T23:08:14.825Z,18.89
2018-06-28T23:10:44.068Z,18.81
2018-06-28T23:13:13.415Z,18.79
2018-06-28T23:15:42.725Z,18.74
2018-06-28T23:18:12.016Z,18.70
2018-06-28T23:20:41.211Z,18.70
2018-06-28T23:23:10.400Z,18.65
2018-06-28T23:25:39.743Z,18.59
2018-06-28T23:28:08.942Z,18.55
2018-06-28T23:30:38.360Z,18.48
2018-06-28T23:33:08.090Z,18.42
2018-06-28T23:35:37.611Z,18.39
2018-06-28T23:38:07.039Z,18.36
2018-06-28T23:40:36.121Z,18.31
2018-06-28T23:44:08.875Z,18.30
2018-06-28T23:46:38.215Z,18.30
2018-06-28T23:49:07.413Z,18.28
2018-06-28T23:51:36.625Z,18.31
2018-06-28T23:54:05.913Z,18.17
2018-06-28T23:56:35.110Z,18.16
2018-06-28T23:59:04.408Z,18.20
